Time;durP1;ratioP1;P1;durP2;ratioP2;P2;SDS_P1;SDS_P2;PMS_P1;PMS_P2;Temp;Humidity;BMP_temperature;BMP_pressure;BME280_temperature;BME280_humidity;BME280_pressure;Samples;Min_cycle;Max_cycle;Signal;HPM_P1;HPM_P2
2023/09/16 00:01:51;;;;;;;11.00;4.00;;;;;;;19.58;70.94;98422.00;4409565;32;20100;-77
2023/09/16 00:04:18;;;;;;;9.55;3.55;;;;;;;19.34;70.97;98424.56;4409180;32;20140;-77
2023/09/16 00:06:46;;;;;;;8.90;3.75;;;;;;;19.47;71.16;98423.69;4409712;32;20113;-77
2023/09/16 00:09:13;;;;;;;8.52;3.60;;;;;;;19.35;70.95;98425.38;4409539;32;20102;-77
2023/09/16 00:11:40;;;;;;;7.30;3.40;;;;;;;19.71;69.77;98427.16;4409183;32;20097;-77
2023/09/16 00:14:07;;;;;;;9.88;3.50;;;;;;;19.79;69.13;98424.81;4409632;32;20090;-77
2023/09/16 00:16:33;;;;;;;10.52;4.18;;;;;;;19.27;70.62;98425.97;4409544;32;20558;-77
2023/09/16 00:19:02;;;;;;;9.75;3.72;;;;;;;18.91;72.35;98423.34;4409110;32;20425;-77
2023/09/16 00:21:29;;;;;;;9.43;3.90;;;;;;;18.79;72.92;98428.50;4409113;32;20100;-77
2023/09/16 00:23:56;;;;;;;9.40;3.53;;;;;;;18.85;72.95;98421.19;4409406;32;20078;-77
2023/09/16 00:26:23;;;;;;;15.10;4.50;;;;;;;18.78;73.43;98433.84;4409397;32;20157;-78
2023/09/16 00:28:50;;;;;;;11.57;4.03;;;;;;;19.23;71.91;98421.88;4411270;32;20090;-77
2023/09/16 00:31:17;;;;;;;9.88;3.70;;;;;;;19.66;69.35;98424.03;4411109;32;20105;-77
2023/09/16 00:33:44;;;;;;;10.70;3.83;;;;;;;19.25;70.61;98422.63;4397107;32;20368;-77
2023/09/16 00:36:11;;;;;;;10.50;3.95;;;;;;;19.06;71.55;98424.88;4411157;32;20086;-77
2023/09/16 00:38:38;;;;;;;10.98;3.72;;;;;;;18.82;72.39;98426.59;4411017;32;20365;-77
2023/09/16 00:41:05;;;;;;;9.85;4.20;;;;;;;18.65;73.04;98425.19;4410747;32;20157;-77
2023/09/16 00:43:32;;;;;;;14.60;4.12;;;;;;;19.31;71.07;98418.72;4411209;32;20145;-77
2023/09/16 00:45:59;;;;;;;11.00;4.05;;;;;;;18.66;73.53;98421.63;4410569;32;20150;-77
2023/09/16 00:48:26;;;;;;;8.50;3.60;;;;;;;18.78;73.28;98429.44;4411204;32;20433;-77
2023/09/16 00:50:54;;;;;;;9.88;4.10;;;;;;;18.77;72.56;98425.16;4410952;32;20092;-77
2023/09/16 00:53:21;;;;;;;11.52;3.97;;;;;;;19.19;70.54;98427.47;4410694;32;20141;-77
2023/09/16 00:55:49;;;;;;;7.95;3.50;;;;;;;18.59;72.27;98423.78;4410858;32;20118;-77
2023/09/16 00:58:19;;;;;;;8.93;3.80;;;;;;;19.09;70.23;98424.66;4410982;32;20145;-77
2023/09/16 01:00:46;;;;;;;7.97;3.67;;;;;;;18.98;70.51;98421.97;4410743;32;20160;-77
2023/09/16 01:03:15;;;;;;;8.50;3.65;;;;;;;18.59;71.03;98430.78;4410983;32;20082;-77
2023/09/16 01:05:44;;;;;;;14.45;4.15;;;;;;;18.23;72.09;98423.72;4397287;32;20468;-77
2023/09/16 01:08:12;;;;;;;13.50;4.47;;;;;;;17.93;73.72;98425.66;4397102;32;20530;-77
2023/09/16 01:10:40;;;;;;;9.25;3.47;;;;;;;18.04;73.92;98430.16;4410849;32;20081;-77
2023/09/16 01:13:08;;;;;;;6.57;3.00;;;;;;;18.60;71.91;98430.69;4410953;32;20162;-77
2023/09/16 01:15:51;;;;;;;8.65;3.55;;;;;;;18.55;71.53;98432.78;4396862;32;20475;-77
2023/09/16 01:18:25;;;;;;;10.05;4.00;;;;;;;17.91;74.88;98426.72;4406326;32;145305;-77
2023/09/16 01:20:55;;;;;;;10.43;3.60;;;;;;;18.07;74.72;98427.34;4397011;32;20086;-77
2023/09/16 01:23:22;;;;;;;10.43;3.83;;;;;;;18.22;74.50;98428.09;4411005;32;20074;-77
2023/09/16 01:25:49;;;;;;;10.00;4.00;;;;;;;18.61;72.53;98431.50;4410696;32;20158;-77
2023/09/16 01:28:16;;;;;;;9.13;3.97;;;;;;;18.54;72.51;98428.50;4410613;32;20837;-77
2023/09/16 01:30:50;;;;;;;7.97;3.75;;;;;;;18.47;72.88;98433.31;4410801;32;20417;-77
2023/09/16 01:33:29;;;;;;;11.12;3.97;;;;;;;17.84;76.10;98426.25;4397387;32;20346;-77
2023/09/16 01:36:09;;;;;;;10.65;4.65;;;;;;;17.62;77.68;98423.37;4396752;32;20110;-77
2023/09/16 01:38:37;;;;;;;11.77;4.70;;;;;;;16.99;81.95;98419.56;4410160;32;20094;-77
2023/09/16 01:41:05;;;;;;;10.63;5.15;;;;;;;16.75;85.33;98421.09;4397059;32;20440;-77
2023/09/16 01:43:32;;;;;;;10.40;3.85;;;;;;;17.35;80.43;98416.41;4396731;32;20121;-77
2023/09/16 01:45:59;;;;;;;9.05;3.50;;;;;;;17.72;77.63;98421.03;4410563;32;20102;-77
2023/09/16 01:48:26;;;;;;;7.82;3.50;;;;;;;18.13;73.36;98413.88;4410783;32;20101;-77
2023/09/16 01:51:13;;;;;;;7.30;3.30;;;;;;;17.76;72.69;98420.75;4410444;32;20112;-77
2023/09/16 01:53:41;;;;;;;7.37;3.00;;;;;;;17.55;73.29;98416.91;4410672;32;20237;-77
2023/09/16 01:56:08;;;;;;;7.62;3.28;;;;;;;17.39;74.20;98416.19;4410259;32;20145;-76
2023/09/16 01:58:35;;;;;;;8.40;3.78;;;;;;;17.52;74.08;98424.91;4410557;32;20516;-77
2023/09/16 02:01:10;;;;;;;8.65;3.65;;;;;;;17.20;75.59;98427.81;4410527;32;20104;-77
2023/09/16 02:03:37;;;;;;;11.65;4.45;;;;;;;16.66;79.81;98424.25;4410453;32;20101;-77
2023/09/16 02:06:07;;;;;;;10.57;4.47;;;;;;;17.19;78.21;98435.72;4410468;32;20433;-77
2023/09/16 02:08:34;;;;;;;8.00;3.85;;;;;;;17.11;79.71;98431.00;4410535;32;20108;-77
2023/09/16 02:11:02;;;;;;;9.45;3.80;;;;;;;17.77;76.55;98429.41;4410184;32;20098;-77
2023/09/16 02:13:31;;;;;;;9.85;4.28;;;;;;;17.60;76.44;98431.31;4410544;32;20149;-77
2023/09/16 02:15:59;;;;;;;10.70;3.42;;;;;;;18.16;73.35;98429.34;4410324;32;20090;-77
2023/09/16 02:18:26;;;;;;;7.90;3.47;;;;;;;17.72;74.19;98429.69;4410108;32;20111;-77
2023/09/16 02:20:53;;;;;;;8.57;3.42;;;;;;;17.53;74.13;98434.41;4410179;32;20165;-77
2023/09/16 02:23:21;;;;;;;9.50;3.87;;;;;;;17.24;75.02;98439.72;4410535;32;20433;-77
2023/09/16 02:25:48;;;;;;;11.07;4.18;;;;;;;17.19;75.58;98440.94;4396218;32;20182;-77
2023/09/16 02:28:15;;;;;;;10.43;4.15;;;;;;;17.41;75.89;98436.03;4410479;32;20810;-77
2023/09/16 02:30:42;;;;;;;8.52;3.97;;;;;;;16.45;82.50;98432.44;4410371;32;20499;-77
2023/09/16 02:33:09;;;;;;;9.18;3.67;;;;;;;15.72;87.01;98439.34;4410151;32;20132;-77
2023/09/16 02:35:38;;;;;;;10.43;3.75;;;;;;;15.35;89.72;98445.78;4410316;32;20448;-77
2023/09/16 02:38:06;;;;;;;13.10;4.45;;;;;;;16.37;85.17;98442.47;4410293;32;20153;-77
2023/09/16 02:40:32;;;;;;;9.32;3.50;;;;;;;16.88;81.35;98449.84;4410266;32;20497;-77
2023/09/16 02:42:59;;;;;;;9.27;3.20;;;;;;;17.30;76.84;98441.09;4410271;32;20556;-77
2023/09/16 02:45:26;;;;;;;9.43;3.40;;;;;;;17.35;74.49;98441.66;4409831;32;20105;-77
2023/09/16 02:47:53;;;;;;;9.77;3.12;;;;;;;17.34;74.25;98443.44;4410408;32;20108;-77
2023/09/16 02:50:20;;;;;;;8.43;3.55;;;;;;;17.25;74.60;98444.00;4410291;32;20090;-77
2023/09/16 02:52:47;;;;;;;8.48;3.62;;;;;;;17.53;73.25;98443.06;4410018;32;20584;-77
2023/09/16 02:55:16;;;;;;;10.68;3.55;;;;;;;17.10;75.65;98441.53;4410183;32;20167;-77
2023/09/16 02:57:43;;;;;;;7.75;3.22;;;;;;;17.55;74.67;98440.38;4410360;32;20452;-77
2023/09/16 03:00:10;;;;;;;10.68;4.18;;;;;;;16.99;77.37;98442.19;4409770;32;20086;-77
2023/09/16 03:02:37;;;;;;;9.65;3.75;;;;;;;17.06;77.86;98438.28;4410347;32;20413;-77
2023/09/16 03:05:04;;;;;;;10.45;4.07;;;;;;;17.13;78.17;98436.97;4410129;32;20094;-77
2023/09/16 03:07:31;;;;;;;11.35;4.28;;;;;;;17.18;78.27;98437.50;4409980;32;20433;-77
2023/09/16 03:09:58;;;;;;;11.52;4.35;;;;;;;17.22;78.70;98438.13;4410187;32;20150;-77
2023/09/16 03:12:25;;;;;;;15.00;4.85;;;;;;;17.07;80.34;98437.34;4410117;32;20086;-77
2023/09/16 03:14:52;;;;;;;12.05;4.12;;;;;;;17.37;79.20;98444.16;4409720;32;20129;-77
2023/09/16 03:17:19;;;;;;;10.18;3.75;;;;;;;17.64;77.42;98440.59;4410133;32;20112;-77
2023/09/16 03:19:46;;;;;;;8.82;3.70;;;;;;;17.79;76.24;98443.19;4410020;32;20087;-77
2023/09/16 03:22:13;;;;;;;9.20;3.90;;;;;;;17.64;76.17;98443.19;4409478;32;20104;-77
2023/09/16 03:24:40;;;;;;;9.10;3.70;;;;;;;17.68;75.97;98443.03;4396393;32;20098;-77
2023/09/16 03:27:07;;;;;;;7.95;3.10;;;;;;;17.66;75.36;98450.94;4410028;32;20090;-77
2023/09/16 03:29:34;;;;;;;9.48;3.70;;;;;;;17.93;73.76;98454.37;4396116;32;20090;-77
2023/09/16 03:32:01;;;;;;;9.63;3.35;;;;;;;17.73;73.25;98457.47;4410062;32;20086;-77
2023/09/16 03:34:28;;;;;;;8.48;3.37;;;;;;;17.75;73.65;98459.97;4409607;32;20430;-77
2023/09/16 03:36:55;;;;;;;8.00;3.55;;;;;;;17.64;74.48;98453.63;4410059;32;20086;-77
2023/09/16 03:39:22;;;;;;;11.50;3.85;;;;;;;17.60;74.44;98460.00;4409913;32;20097;-77
2023/09/16 03:41:49;;;;;;;8.02;3.47;;;;;;;17.59;74.50;98458.31;4409566;32;20086;-77
2023/09/16 03:44:16;;;;;;;13.93;4.50;;;;;;;17.55;74.40;98454.25;4409853;32;20492;-77
2023/09/16 03:46:43;;;;;;;10.57;4.37;;;;;;;17.51;75.19;98451.94;4409894;32;20133;-77
2023/09/16 03:49:10;;;;;;;9.93;3.92;;;;;;;17.41;77.34;98449.06;4409505;32;20165;-77
2023/09/16 03:51:37;;;;;;;10.43;4.00;;;;;;;17.26;79.27;98452.66;4409762;32;20100;-77
2023/09/16 03:54:06;;;;;;;9.43;4.20;;;;;;;17.14;79.71;98443.84;4396056;32;20097;-77
2023/09/16 03:56:34;;;;;;;8.25;3.72;;;;;;;17.20;79.69;98443.44;4409486;32;20102;-77
2023/09/16 03:59:01;;;;;;;12.45;4.10;;;;;;;17.84;75.63;98441.09;4409749;32;20153;-77
2023/09/16 04:01:28;;;;;;;8.07;3.22;;;;;;;18.17;71.55;98440.63;4409091;32;20125;-77
2023/09/16 04:03:55;;;;;;;8.38;3.22;;;;;;;18.01;71.42;98448.66;4395638;32;20555;-77
2023/09/16 04:06:22;;;;;;;8.15;3.33;;;;;;;17.39;73.82;98452.72;4409874;32;20108;-77
2023/09/16 04:08:49;;;;;;;10.45;3.37;;;;;;;17.00;76.37;98444.69;4396032;32;20094;-77
2023/09/16 04:11:16;;;;;;;11.12;3.83;;;;;;;17.12;76.62;98448.34;4409238;32;20500;-77
2023/09/16 04:13:43;;;;;;;8.52;3.42;;;;;;;17.39;75.58;98443.12;4409612;32;20149;-77
2023/09/16 04:16:11;;;;;;;10.05;3.90;;;;;;;17.31;76.43;98451.44;4409537;32;20158;-77
2023/09/16 04:18:38;;;;;;;8.63;3.60;;;;;;;17.40;76.67;98447.41;4409123;32;20087;-77
2023/09/16 04:21:06;;;;;;;11.82;4.05;;;;;;;17.48;76.79;98442.53;4409166;32;20151;-77
2023/09/16 04:23:36;;;;;;;11.63;4.22;;;;;;;17.60;76.75;98439.13;4409229;32;20106;-77
2023/09/16 04:26:05;;;;;;;11.18;4.20;;;;;;;17.94;75.69;98444.78;4396118;32;20123;-77
2023/09/16 04:28:32;;;;;;;9.70;3.92;;;;;;;17.99;75.87;98439.25;4409356;32;20082;-77
2023/09/16 04:30:59;;;;;;;9.52;4.05;;;;;;;18.02;75.77;98446.87;4408921;32;20082;-77
2023/09/16 04:33:26;;;;;;;11.25;3.83;;;;;;;18.02;76.18;98445.09;4409221;32;20189;-78
2023/09/16 04:35:53;;;;;;;10.18;4.70;;;;;;;18.01;76.44;98453.87;4395609;32;20152;-77
2023/09/16 04:38:20;;;;;;;12.15;4.93;;;;;;;17.89;77.01;98457.31;4408916;32;20143;-77
2023/09/16 04:40:50;;;;;;;12.40;4.40;;;;;;;17.91;76.62;98452.81;4409177;32;20133;-77
2023/09/16 04:43:17;;;;;;;10.85;4.00;;;;;;;18.19;76.17;98457.88;4409181;32;20141;-77
2023/09/16 04:45:44;;;;;;;8.52;3.58;;;;;;;18.94;70.57;98463.22;4408748;32;20107;-77
2023/09/16 04:48:15;;;;;;;12.90;4.25;;;;;;;18.94;68.71;98460.59;4409208;32;20346;-77
2023/09/16 04:50:43;;;;;;;10.80;4.25;;;;;;;18.53;69.43;98458.19;4395403;32;20100;-77
2023/09/16 04:53:10;;;;;;;9.50;3.28;;;;;;;18.11;71.40;98464.56;4408750;32;20452;-77
2023/09/16 04:55:38;;;;;;;10.60;3.87;;;;;;;17.98;72.81;98461.91;4408923;32;20110;-77
2023/09/16 04:58:04;;;;;;;12.95;3.80;;;;;;;18.31;72.11;98458.00;4409149;32;20086;-77
2023/09/16 05:00:33;;;;;;;8.88;3.72;;;;;;;18.59;71.14;98462.16;4408549;32;20099;-77
2023/09/16 05:03:00;;;;;;;10.98;3.78;;;;;;;18.45;72.20;98469.16;4395478;32;20162;-77
2023/09/16 05:05:28;;;;;;;13.23;3.90;;;;;;;18.52;72.25;98473.97;4408518;32;20541;-77
2023/09/16 05:07:55;;;;;;;11.68;4.35;;;;;;;18.41;73.01;98472.09;4408996;32;20451;-77
2023/09/16 05:10:22;;;;;;;10.95;4.15;;;;;;;18.48;73.42;98468.94;4408805;32;20078;-77
2023/09/16 05:12:49;;;;;;;13.95;4.62;;;;;;;18.57;73.26;98474.50;4408532;32;20428;-77
2023/09/16 05:15:16;;;;;;;10.02;4.32;;;;;;;18.97;72.41;98483.06;4410761;32;20122;-77
2023/09/16 05:17:43;;;;;;;10.30;4.32;;;;;;;18.83;73.17;98478.81;4410919;32;20113;-77
2023/09/16 05:20:10;;;;;;;10.05;4.80;;;;;;;18.77;74.31;98482.66;4410305;32;20137;-77
2023/09/16 05:22:38;;;;;;;10.57;4.28;;;;;;;18.83;74.75;98481.41;4397054;32;20098;-77
2023/09/16 05:25:06;;;;;;;11.20;4.50;;;;;;;18.58;75.80;98478.78;4410709;32;20101;-77
2023/09/16 05:27:33;;;;;;;10.25;4.47;;;;;;;19.01;74.01;98476.66;4396863;32;20094;-77
2023/09/16 05:30:01;;;;;;;11.05;4.65;;;;;;;18.58;75.87;98481.38;4397182;32;20134;-77
2023/09/16 05:32:29;;;;;;;9.95;4.25;;;;;;;18.90;75.35;98479.19;4410664;32;20105;-77
2023/09/16 05:34:57;;;;;;;11.95;4.65;;;;;;;19.37;73.77;98475.84;4410324;32;20497;-77
2023/09/16 05:37:24;;;;;;;11.40;4.60;;;;;;;19.52;72.05;98477.34;4410859;32;20440;-77
2023/09/16 05:39:51;;;;;;;12.32;4.28;;;;;;;19.84;71.49;98485.50;4410637;32;20103;-77
2023/09/16 05:42:18;;;;;;;11.43;4.62;;;;;;;19.84;71.38;98480.28;4410307;32;20097;-77
2023/09/16 05:44:45;;;;;;;12.98;4.47;;;;;;;20.07;69.64;98485.59;4410556;32;20122;-77
2023/09/16 05:47:12;;;;;;;10.75;4.40;;;;;;;19.60;70.82;98484.69;4410761;32;20102;-77
2023/09/16 05:49:39;;;;;;;10.93;4.43;;;;;;;19.11;74.02;98479.47;4410463;32;20128;-77
2023/09/16 05:52:06;;;;;;;9.32;4.30;;;;;;;19.19;74.41;98482.38;4410616;32;20124;-77
2023/09/16 05:54:33;;;;;;;11.98;4.65;;;;;;;19.17;73.87;98482.50;4410503;32;20161;-77
2023/09/16 05:57:00;;;;;;;11.85;4.68;;;;;;;19.14;72.70;98474.88;4410732;32;20101;-77
2023/09/16 05:59:27;;;;;;;11.20;4.60;;;;;;;19.03;74.19;98482.63;4410526;32;20108;-77
2023/09/16 06:01:54;;;;;;;11.23;4.78;;;;;;;18.93;74.06;98479.00;4410293;32;20163;-77
2023/09/16 06:04:21;;;;;;;10.48;4.57;;;;;;;19.33;73.19;98477.84;4410534;32;20102;-77
2023/09/16 06:06:51;;;;;;;10.90;5.22;;;;;;;19.13;74.45;98481.03;4410604;32;20097;-77
2023/09/16 06:09:18;;;;;;;11.98;4.97;;;;;;;18.93;75.44;98485.06;4396954;32;20116;-77
2023/09/16 06:11:45;;;;;;;10.93;4.95;;;;;;;19.23;75.21;98482.03;4410446;32;20586;-77
2023/09/16 06:14:12;;;;;;;13.23;4.32;;;;;;;19.75;73.04;98485.34;4410600;32;20125;-77
2023/09/16 06:16:39;;;;;;;10.05;4.50;;;;;;;20.18;71.04;98483.81;4410126;32;20425;-77
2023/09/16 06:19:06;;;;;;;9.88;4.35;;;;;;;20.42;68.76;98482.94;4410414;32;20082;-77
2023/09/16 06:21:33;;;;;;;12.70;4.90;;;;;;;20.27;69.83;98487.56;4410167;32;20120;-77
2023/09/16 06:24:00;;;;;;;13.55;4.82;;;;;;;20.74;67.81;98481.34;4396150;32;20098;-77
2023/09/16 06:26:27;;;;;;;12.82;4.60;;;;;;;20.86;67.22;98486.59;4410480;32;20575;-77
2023/09/16 06:28:54;;;;;;;13.07;4.68;;;;;;;20.77;67.73;98483.72;4410428;32;20078;-77
2023/09/16 06:31:22;;;;;;;13.82;4.95;;;;;;;20.65;68.17;98487.31;4410045;32;20094;-77
2023/09/16 06:33:49;;;;;;;10.15;4.37;;;;;;;20.61;69.11;98480.59;4410521;32;20082;-77
2023/09/16 06:36:18;;;;;;;10.73;4.60;;;;;;;20.84;68.06;98488.47;4410442;32;20556;-77
2023/09/16 06:38:45;;;;;;;15.50;4.72;;;;;;;20.69;67.87;98487.88;4409971;32;20082;-77
2023/09/16 06:41:13;;;;;;;10.52;4.15;;;;;;;21.02;67.08;98476.56;4410321;32;20157;-77
2023/09/16 06:43:40;;;;;;;9.27;4.28;;;;;;;20.99;67.25;98476.81;4410416;32;20133;-77
2023/09/16 06:46:06;;;;;;;8.07;3.22;;;;;;;21.22;67.17;98480.22;4410348;32;20106;-78
2023/09/16 06:48:34;;;;;;;8.75;2.70;;;;;;;21.44;65.39;98477.59;4410357;32;20086;-77
2023/09/16 06:51:01;;;;;;;6.25;2.42;;;;;;;21.76;62.74;98485.50;4409935;32;20109;-77
2023/09/16 06:53:28;;;;;;;8.13;2.95;;;;;;;21.08;64.84;98486.59;4410210;32;20109;-77
2023/09/16 06:55:55;;;;;;;7.00;2.28;;;;;;;21.24;64.20;98473.91;4410171;32;20165;-77
2023/09/16 06:58:22;;;;;;;7.43;2.70;;;;;;;21.62;63.71;98477.91;4410071;32;20078;-77
2023/09/16 07:00:50;;;;;;;4.78;2.20;;;;;;;22.11;60.60;98480.00;4410153;32;20145;-77
2023/09/16 07:03:18;;;;;;;7.43;2.47;;;;;;;21.64;62.19;98479.44;4410285;32;20108;-77
2023/09/16 07:05:46;;;;;;;9.85;2.65;;;;;;;21.95;61.02;98484.81;4409813;32;20098;-77
2023/09/16 07:08:17;;;;;;;6.53;2.28;;;;;;;21.42;63.25;98483.94;4410316;32;20149;-77
2023/09/16 07:10:44;;;;;;;5.25;2.42;;;;;;;21.99;62.08;98483.59;4410201;32;20826;-77
2023/09/16 07:13:11;;;;;;;5.68;2.17;;;;;;;21.99;61.51;98488.03;4409847;32;20089;-77
2023/09/16 07:15:38;;;;;;;6.90;2.28;;;;;;;21.75;61.75;98488.25;4396488;32;20156;-77
2023/09/16 07:18:06;;;;;;;5.35;2.20;;;;;;;21.84;62.07;98484.87;4410168;32;20086;-77
2023/09/16 07:20:33;;;;;;;4.50;2.10;;;;;;;21.42;62.99;98487.38;4395888;32;20106;-77
2023/09/16 07:22:59;;;;;;;5.85;2.12;;;;;;;21.40;62.53;98493.72;4410062;32;20106;-77
2023/09/16 07:25:27;;;;;;;7.25;2.53;;;;;;;21.86;60.47;98491.66;4410016;32;20468;-77
2023/09/16 07:27:54;;;;;;;5.80;2.12;;;;;;;21.80;62.20;98489.56;4409837;32;20089;-77
2023/09/16 07:30:22;;;;;;;6.25;2.20;;;;;;;21.69;62.00;98489.56;4409921;32;20115;-77
2023/09/16 07:32:50;;;;;;;4.68;2.00;;;;;;;21.90;60.58;98487.84;4409747;32;20118;-77
2023/09/16 07:35:17;;;;;;;5.25;2.20;;;;;;;22.36;59.21;98488.47;4410007;32;20101;-77
2023/09/16 07:37:44;;;;;;;6.45;2.22;;;;;;;22.34;58.99;98496.50;4395439;32;20116;-77
2023/09/16 07:40:12;;;;;;;5.05;2.22;;;;;;;22.51;60.44;98498.53;4409378;32;20385;-77
2023/09/16 07:42:39;;;;;;;5.55;2.20;;;;;;;22.44;60.01;98501.81;4396350;32;20094;-77
2023/09/16 07:45:07;;;;;;;5.80;2.15;;;;;;;22.78;57.60;98491.87;4409820;32;20081;-77
2023/09/16 07:47:34;;;;;;;4.25;1.83;;;;;;;22.69;57.94;98500.56;4409635;32;20078;-77
2023/09/16 07:50:01;;;;;;;5.10;2.28;;;;;;;22.80;58.25;98492.59;4409943;32;20086;-77
2023/09/16 07:52:29;;;;;;;4.97;2.03;;;;;;;22.87;58.95;98499.03;4409829;32;20086;-77
2023/09/16 07:55:00;;;;;;;7.28;2.15;;;;;;;22.67;58.63;98497.25;4409385;32;20180;-77
2023/09/16 07:57:30;;;;;;;5.90;2.30;;;;;;;22.94;57.55;98494.88;4409795;32;20101;-77
2023/09/16 07:59:57;;;;;;;5.90;2.45;;;;;;;23.38;57.32;98498.91;4409720;32;20163;-77
2023/09/16 08:02:24;;;;;;;5.32;2.12;;;;;;;23.82;55.97;98507.34;4409340;32;20091;-77
2023/09/16 08:04:51;;;;;;;5.62;2.10;;;;;;;23.92;54.16;98502.06;4409621;32;20108;-78
2023/09/16 08:07:18;;;;;;;4.37;2.05;;;;;;;24.63;53.65;98507.84;4409712;32;20139;-77
2023/09/16 08:09:45;;;;;;;6.68;2.03;;;;;;;24.35;53.75;98509.56;4409263;32;20094;-77
2023/09/16 08:12:17;;;;;;;5.15;2.20;;;;;;;23.82;54.75;98504.72;4409605;32;20113;-77
2023/09/16 08:14:44;;;;;;;5.40;2.30;;;;;;;24.31;52.65;98509.97;4409589;32;20098;-77
2023/09/16 08:17:11;;;;;;;5.30;2.10;;;;;;;24.40;53.29;98511.78;4409250;32;20448;-77
2023/09/16 08:19:38;;;;;;;4.75;1.98;;;;;;;24.56;52.91;98505.91;4409492;32;20146;-78
2023/09/16 08:22:05;;;;;;;5.85;2.47;;;;;;;24.83;52.01;98500.69;4408625;32;20166;-78
2023/09/16 08:24:33;;;;;;;7.62;2.47;;;;;;;24.43;53.21;98504.41;4409401;32;20115;-78
2023/09/16 08:27:01;;;;;;;5.82;2.22;;;;;;;25.16;52.06;98509.91;4409579;32;20078;-78
2023/09/16 08:29:28;;;;;;;5.60;2.20;;;;;;;24.94;52.08;98504.97;4409087;32;20381;-78
2023/09/16 08:31:55;;;;;;;5.00;2.12;;;;;;;24.78;51.21;98501.13;4409236;32;20441;-77
2023/09/16 08:34:22;;;;;;;4.95;2.15;;;;;;;24.64;51.97;98506.03;4409382;32;20107;-77
2023/09/16 08:36:49;;;;;;;7.53;2.42;;;;;;;24.49;52.23;98500.37;4409019;32;20078;-78
2023/09/16 08:39:16;;;;;;;5.32;2.50;;;;;;;24.82;51.77;98504.31;4409222;32;20129;-77
2023/09/16 08:41:52;;;;;;;5.40;2.47;;;;;;;24.76;51.37;98502.25;4409287;32;20094;-78
2023/09/16 08:44:22;;;;;;;8.88;2.53;;;;;;;24.22;53.37;98501.06;4408750;32;20112;-77
2023/09/16 08:46:59;;;;;;;6.32;2.22;;;;;;;24.42;52.55;98502.75;4409316;32;20093;-77
2023/09/16 08:49:27;;;;;;;8.45;2.42;;;;;;;24.27;53.14;98506.78;4411251;32;20109;-78
2023/09/16 08:51:59;;;;;;;6.68;2.70;;;;;;;23.99;53.14;98502.34;4397032;32;20121;-77
2023/09/16 08:54:29;;;;;;;4.75;2.25;;;;;;;23.77;54.34;98504.28;4397426;32;20086;-77
2023/09/16 08:56:56;;;;;;;6.62;2.17;;;;;;;23.97;52.80;98505.13;4397509;32;20102;-77
2023/09/16 08:59:24;;;;;;;5.78;2.17;;;;;;;23.81;54.02;98510.09;4396975;32;20162;-77
2023/09/16 09:01:51;;;;;;;5.85;2.37;;;;;;;24.19;52.83;98496.09;4410969;32;20106;-77
2023/09/16 09:04:19;;;;;;;6.72;2.25;;;;;;;24.65;51.58;98500.59;4410606;32;20108;-77
2023/09/16 09:06:47;;;;;;;4.47;2.12;;;;;;;24.70;52.42;98502.81;4397440;32;20083;-77
2023/09/16 09:09:14;;;;;;;8.52;2.53;;;;;;;24.88;51.09;98502.88;4410970;32;20110;-77
2023/09/16 09:11:41;;;;;;;6.28;2.40;;;;;;;24.67;51.57;98503.94;4410567;32;20152;-77
2023/09/16 09:14:10;;;;;;;6.05;1.90;;;;;;;25.05;50.46;98508.28;4410869;32;20105;-77
2023/09/16 09:16:39;;;;;;;7.47;2.10;;;;;;;25.50;49.90;98512.75;4410977;32;20075;-77
2023/09/16 09:19:07;;;;;;;4.40;2.10;;;;;;;26.07;48.00;98504.63;4410492;32;20205;-77
2023/09/16 09:21:35;;;;;;;5.90;2.15;;;;;;;26.12;47.46;98513.72;4410463;32;20090;-77
2023/09/16 09:24:02;;;;;;;6.50;2.67;;;;;;;25.86;47.42;98504.91;4397169;32;20091;-77
2023/09/16 09:26:29;;;;;;;9.00;2.30;;;;;;;24.91;50.55;98505.25;4410567;32;20066;-77
2023/09/16 09:28:58;;;;;;;7.32;2.50;;;;;;;25.25;49.36;98508.19;4410845;32;20138;-77
2023/09/16 09:31:26;;;;;;;5.93;2.40;;;;;;;25.75;48.33;98500.69;4397167;32;20120;-77
2023/09/16 09:33:54;;;;;;;5.95;2.30;;;;;;;26.41;47.21;98496.81;4410346;32;20106;-77
2023/09/16 09:36:21;;;;;;;4.68;2.03;;;;;;;26.84;45.52;98500.37;4397272;32;20074;-77
2023/09/16 09:38:48;;;;;;;4.85;2.03;;;;;;;26.58;46.09;98509.13;4410868;32;20110;-77
2023/09/16 09:41:16;;;;;;;5.82;2.17;;;;;;;26.29;46.37;98501.50;4410205;32;20093;-77
2023/09/16 09:43:43;;;;;;;6.37;2.05;;;;;;;25.98;46.82;98503.72;4410738;32;20082;-77
2023/09/16 09:46:10;;;;;;;3.62;1.87;;;;;;;26.35;46.02;98506.16;4410387;32;20070;-77
2023/09/16 09:48:38;;;;;;;6.60;1.95;;;;;;;26.41;45.37;98502.94;4397054;32;20102;-77
2023/09/16 09:51:08;;;;;;;3.95;1.90;;;;;;;26.09;45.01;98505.28;4397033;32;20159;-77
2023/09/16 09:53:36;;;;;;;4.25;1.90;;;;;;;25.87;46.46;98506.56;4410409;32;20360;-78
2023/09/16 09:56:03;;;;;;;6.18;2.37;;;;;;;26.41;45.93;98504.75;4397007;32;20100;-77
2023/09/16 09:58:31;;;;;;;6.50;2.50;;;;;;;25.97;47.31;98504.69;4410579;32;20111;-77
2023/09/16 10:00:59;;;;;;;4.87;2.00;;;;;;;25.74;47.83;98501.66;4396219;32;20125;-77
2023/09/16 10:03:27;;;;;;;7.32;2.67;;;;;;;25.18;49.39;98504.47;4410607;32;20097;-77
2023/09/16 10:05:56;;;;;;;4.97;2.30;;;;;;;25.03;49.64;98504.97;4396864;32;20425;-78
2023/09/16 10:08:24;;;;;;;5.43;2.50;;;;;;;24.81;50.25;98503.47;4396541;32;20453;-77
2023/09/16 10:10:52;;;;;;;4.97;2.10;;;;;;;24.51;50.09;98499.25;4410493;32;20089;-77
2023/09/16 10:13:19;;;;;;;6.00;2.42;;;;;;;24.06;51.60;98499.03;4410581;32;20483;-77
2023/09/16 10:15:47;;;;;;;6.82;2.12;;;;;;;24.10;51.66;98502.19;4396395;32;20083;-77
2023/09/16 10:18:14;;;;;;;5.03;2.10;;;;;;;24.09;51.50;98495.25;4410677;32;20124;-77
2023/09/16 10:20:43;;;;;;;6.78;2.10;;;;;;;23.85;51.48;98498.31;4410224;32;20449;-77
2023/09/16 10:23:10;;;;;;;4.60;2.20;;;;;;;23.12;54.04;98497.72;4396781;32;20090;-77
2023/09/16 10:25:38;;;;;;;7.03;2.17;;;;;;;23.58;52.65;98496.31;4396622;32;20130;-77
2023/09/16 10:28:08;;;;;;;6.43;2.28;;;;;;;23.15;54.52;98484.28;4397180;32;20457;-77
2023/09/16 10:30:36;;;;;;;5.10;2.22;;;;;;;23.94;51.63;98485.16;4410121;32;20151;-77
2023/09/16 10:33:05;;;;;;;3.95;1.87;;;;;;;24.10;51.78;98481.94;4396748;32;20091;-78
2023/09/16 10:35:34;;;;;;;4.20;2.10;;;;;;;24.03;52.89;98483.50;4409963;32;20105;-77
2023/09/16 10:38:03;;;;;;;6.60;2.20;;;;;;;24.20;50.28;98477.50;4396947;32;20102;-77
2023/09/16 10:40:32;;;;;;;6.25;2.20;;;;;;;24.15;50.96;98479.72;4396619;32;20165;-77
2023/09/16 10:43:01;;;;;;;5.97;2.10;;;;;;;24.14;50.97;98474.59;4410032;32;20538;-77
2023/09/16 10:45:28;;;;;;;6.15;2.45;;;;;;;24.57;49.31;98482.03;4396532;32;20170;-77
2023/09/16 10:47:55;;;;;;;6.57;2.05;;;;;;;24.83;48.76;98476.13;4384291;32;20162;-78
2023/09/16 10:50:29;;;;;;;4.30;1.95;;;;;;;25.30;47.51;98476.87;4409958;32;20132;-77
2023/09/16 10:53:03;;;;;;;5.78;2.45;;;;;;;25.86;46.23;98475.84;4397291;32;20381;-78
2023/09/16 10:55:49;;;;;;;5.30;2.08;;;;;;;25.91;46.59;98476.19;4396660;32;20154;-78
2023/09/16 10:58:48;;;;;;;4.55;2.10;;;;;;;25.38;46.24;98463.75;4396347;32;20114;-77
2023/09/16 11:01:47;;;;;;;4.90;2.12;;;;;;;26.21;46.32;98467.88;4410174;32;20443;-77
2023/09/16 11:04:18;;;;;;;5.03;2.10;;;;;;;26.62;44.39;98465.53;4409868;32;20132;-77
2023/09/16 11:06:50;;;;;;;3.92;1.98;;;;;;;26.90;42.89;98454.72;4396725;32;20100;-77
2023/09/16 11:09:20;;;;;;;6.55;2.28;;;;;;;27.32;42.12;98460.87;4410288;32;20112;-78
2023/09/16 11:11:48;;;;;;;5.50;2.05;;;;;;;28.03;40.99;98451.56;4394839;32;20105;-77
2023/09/16 11:14:15;;;;;;;3.80;1.80;;;;;;;28.17;40.84;98450.88;4396493;32;20108;-77
2023/09/16 11:16:44;;;;;;;5.68;1.80;;;;;;;27.10;42.47;98453.50;4396643;32;20426;-77
2023/09/16 11:19:15;;;;;;;4.50;2.05;;;;;;;27.49;41.49;98445.84;4396133;32;20128;-77
2023/09/16 11:21:43;;;;;;;4.60;1.80;;;;;;;27.74;40.99;98453.84;4396085;32;20114;-78
2023/09/16 11:24:13;;;;;;;4.30;1.85;;;;;;;27.74;40.63;98446.72;4410046;32;20113;-77
2023/09/16 11:26:40;;;;;;;7.03;2.10;;;;;;;28.16;40.89;98456.34;4409777;32;20096;-77
2023/09/16 11:29:21;;;;;;;4.62;1.98;;;;;;;27.62;41.70;98451.50;4396437;32;20114;-77
2023/09/16 11:31:48;;;;;;;3.80;1.95;;;;;;;27.48;41.11;98451.31;4409679;32;20136;-78
2023/09/16 11:34:19;;;;;;;4.22;1.95;;;;;;;27.48;40.71;98441.53;4396329;32;20082;-78
2023/09/16 11:36:57;;;;;;;4.82;2.17;;;;;;;27.69;41.56;98441.09;4410001;32;20078;-78